Time;durP1;ratioP1;P1;durP2;ratioP2;P2;SDS_P1;SDS_P2;PMS_P1;PMS_P2;Temp;Humidity;BMP_temperature;BMP_pressure;BME280_temperature;BME280_humidity;BME280_pressure;Samples;Min_cycle;Max_cycle;Signal;HPM_P1;HPM_P2
2022/06/08 00:00:31;;;;;;;0.80;0.80;;;20.00;99.90;;;;;;5021292;28;21709;-76
2022/06/08 00:03:04;;;;;;;1.77;0.90;;;20.00;99.90;;;;;;5019506;28;20483;-79
2022/06/08 00:05:32;;;;;;;0.80;0.80;;;19.90;99.90;;;;;;5016217;28;20468;-78
2022/06/08 00:08:01;;;;;;;1.07;0.80;;;19.90;99.90;;;;;;5017768;28;20980;-78
2022/06/08 00:10:30;;;;;;;0.70;0.70;;;20.00;99.90;;;;;;5021479;28;21065;-77
2022/06/08 00:12:58;;;;;;;1.00;0.80;;;20.00;99.90;;;;;;5025527;28;20567;-77
2022/06/08 00:15:28;;;;;;;0.83;0.80;;;20.00;99.90;;;;;;5019708;28;20448;-76
2022/06/08 00:17:57;;;;;;;1.87;1.20;;;19.80;99.90;;;;;;5022902;28;20460;-77
2022/06/08 00:20:25;;;;;;;0.77;0.77;;;19.80;99.90;;;;;;5020326;28;20451;-78
2022/06/08 00:22:54;;;;;;;1.00;0.90;;;19.90;99.90;;;;;;5015374;28;20491;-78
2022/06/08 00:25:23;;;;;;;1.10;1.00;;;19.90;99.90;;;;;;5023634;28;20499;-78
2022/06/08 00:27:51;;;;;;;1.10;0.97;;;20.00;99.90;;;;;;5022080;28;20455;-78
2022/06/08 00:30:19;;;;;;;0.90;0.90;;;19.90;99.90;;;;;;5018149;28;20507;-77
2022/06/08 00:32:49;;;;;;;1.17;1.07;;;20.00;99.90;;;;;;5017686;28;21007;-78
2022/06/08 00:35:17;;;;;;;0.70;0.70;;;20.00;99.90;;;;;;5014355;28;20453;-78
2022/06/08 00:37:45;;;;;;;2.83;0.93;;;19.90;99.90;;;;;;5022746;28;20484;-78
2022/06/08 00:40:19;;;;;;;1.07;0.97;;;20.00;99.90;;;;;;5022621;28;20821;-77
2022/06/08 00:42:48;;;;;;;0.90;0.90;;;19.90;99.90;;;;;;5018141;28;20475;-77
2022/06/08 00:45:20;;;;;;;2.73;1.00;;;19.90;99.90;;;;;;5017952;28;20911;-78
2022/06/08 00:47:54;;;;;;;1.00;1.00;;;19.90;99.90;;;;;;5022455;28;20458;-77
2022/06/08 00:50:29;;;;;;;1.30;0.97;;;19.80;99.90;;;;;;5019011;28;20442;-78
2022/06/08 00:52:58;;;;;;;1.50;1.10;;;19.80;99.90;;;;;;5018474;28;21309;-78
2022/06/08 00:55:29;;;;;;;0.87;0.87;;;19.80;99.90;;;;;;5018526;28;20560;-77
2022/06/08 00:58:05;;;;;;;0.90;0.90;;;19.80;99.90;;;;;;5017682;28;20516;-78
2022/06/08 01:00:38;;;;;;;0.90;0.90;;;19.80;99.90;;;;;;5014755;28;20822;-77
2022/06/08 01:03:10;;;;;;;1.10;1.00;;;19.80;99.90;;;;;;5021632;28;20479;-77
2022/06/08 01:05:42;;;;;;;1.43;1.33;;;19.80;99.90;;;;;;5032094;28;20483;-77
2022/06/08 01:08:21;;;;;;;0.90;0.90;;;19.80;99.90;;;;;;5018053;28;20835;-78
2022/06/08 01:10:52;;;;;;;2.00;0.90;;;19.60;99.90;;;;;;5018104;28;21097;-77
2022/06/08 01:13:21;;;;;;;1.10;1.00;;;19.60;99.90;;;;;;5021122;28;21073;-79
2022/06/08 01:15:50;;;;;;;0.87;0.87;;;19.50;99.90;;;;;;5023718;28;20458;-77
2022/06/08 01:18:20;;;;;;;0.90;0.90;;;19.50;99.90;;;;;;5023315;28;20489;-78
2022/06/08 01:20:50;;;;;;;1.07;0.97;;;19.50;99.90;;;;;;5020011;28;20515;-78
2022/06/08 01:23:20;;;;;;;0.87;0.70;;;19.60;99.90;;;;;;5023953;28;20487;-78
2022/06/08 01:26:03;;;;;;;1.20;1.10;;;19.70;99.90;;;;;;5020270;28;20865;-79
2022/06/08 01:28:42;;;;;;;1.00;0.90;;;19.70;99.90;;;;;;5023031;28;20463;-80
2022/06/08 01:31:18;;;;;;;1.23;1.10;;;19.70;99.90;;;;;;5029364;28;20464;-80
2022/06/08 01:34:00;;;;;;;1.30;1.20;;;19.70;99.90;;;;;;5025299;28;20483;-80
2022/06/08 01:36:56;;;;;;;1.73;1.00;;;19.70;99.90;;;;;;5033740;28;20465;-80
2022/06/08 01:39:36;;;;;;;1.40;1.30;;;19.60;99.90;;;;;;5019500;28;20454;-80
2022/06/08 01:42:32;;;;;;;0.80;0.80;;;19.50;99.90;;;;;;5016408;28;21371;-80
2022/06/08 01:45:29;;;;;;;1.10;1.00;;;19.40;99.90;;;;;;5016499;28;20447;-79
2022/06/08 01:48:36;;;;;;;1.30;1.20;;;19.30;99.90;;;;;;5014321;28;20467;-80
2022/06/08 01:51:17;;;;;;;1.97;0.93;;;19.40;99.90;;;;;;4955597;28;20455;-79
2022/06/08 01:53:57;;;;;;;2.47;1.13;;;19.40;99.90;;;;;;4952279;28;20545;-80
2022/06/08 01:56:37;;;;;;;1.53;1.20;;;19.50;99.90;;;;;;4995734;28;20462;-80
2022/06/08 01:59:16;;;;;;;1.30;0.90;;;19.50;99.90;;;;;;5016839;28;20464;-81
2022/06/08 02:01:49;;;;;;;1.27;1.17;;;19.50;99.90;;;;;;5014575;28;20471;-80
2022/06/08 02:04:23;;;;;;;0.90;0.90;;;19.50;99.90;;;;;;5025017;28;20502;-80
2022/06/08 02:06:57;;;;;;;1.33;1.23;;;19.50;99.90;;;;;;5027869;28;20469;-80
2022/06/08 02:09:33;;;;;;;1.40;1.07;;;19.40;99.90;;;;;;5014757;28;20465;-83
2022/06/08 02:12:06;;;;;;;0.97;0.90;;;19.30;99.90;;;;;;5013919;28;20459;-80
2022/06/08 02:14:38;;;;;;;2.33;1.00;;;19.20;99.90;;;;;;5014190;28;20460;-80
2022/06/08 02:17:11;;;;;;;2.87;1.40;;;19.20;99.90;;;;;;5015812;28;20512;-81
2022/06/08 02:19:43;;;;;;;1.50;1.40;;;19.30;99.90;;;;;;5019458;28;20544;-80
2022/06/08 02:22:16;;;;;;;1.07;1.07;;;19.30;99.90;;;;;;5019344;28;21404;-80
2022/06/08 02:24:48;;;;;;;1.50;1.20;;;19.30;99.90;;;;;;5015499;28;20456;-80
2022/06/08 02:27:23;;;;;;;1.33;1.00;;;19.20;99.90;;;;;;5027972;28;21084;-80
2022/06/08 02:29:57;;;;;;;1.10;1.00;;;19.30;99.90;;;;;;5014391;28;20562;-80
2022/06/08 02:35:20;;;;;;;1.43;1.00;;;19.30;99.90;;;;;;5017077;28;20507;-80
2022/06/08 02:37:54;;;;;;;1.67;1.00;;;19.30;99.90;;;;;;5020063;28;20483;-81
2022/06/08 02:40:27;;;;;;;1.13;1.03;;;19.30;99.90;;;;;;5015177;28;20466;-81
2022/06/08 02:43:01;;;;;;;1.10;1.00;;;19.30;99.90;;;;;;5020317;28;20546;-81
2022/06/08 02:45:37;;;;;;;1.70;1.60;;;19.30;99.90;;;;;;5020026;28;20482;-81
2022/06/08 02:48:09;;;;;;;1.70;1.33;;;19.40;99.90;;;;;;5016214;28;20450;-81
2022/06/08 02:50:40;;;;;;;1.17;1.07;;;19.20;99.90;;;;;;5015328;28;20907;-80
2022/06/08 02:53:25;;;;;;;1.67;1.00;;;19.30;99.90;;;;;;5019472;28;21022;-80
2022/06/08 02:56:01;;;;;;;1.07;0.90;;;19.20;99.90;;;;;;5015046;28;20559;-81
2022/06/08 02:58:39;;;;;;;1.10;1.00;;;19.20;99.90;;;;;;5022087;28;20882;-80
2022/06/08 03:01:19;;;;;;;0.80;0.80;;;19.20;99.90;;;;;;5015862;28;20471;-80
2022/06/08 03:03:51;;;;;;;2.23;1.30;;;19.20;99.90;;;;;;5015388;28;20478;-80
2022/06/08 03:06:23;;;;;;;1.20;1.10;;;19.10;99.90;;;;;;5018950;28;20973;-80
2022/06/08 03:08:56;;;;;;;1.73;1.00;;;19.00;99.90;;;;;;5017732;28;20459;-80
2022/06/08 03:11:27;;;;;;;1.20;1.10;;;19.10;99.90;;;;;;5018948;28;20981;-80
2022/06/08 03:14:00;;;;;;;1.80;1.07;;;19.00;99.90;;;;;;5017226;28;20476;-81
2022/06/08 03:16:31;;;;;;;1.20;1.10;;;19.00;99.90;;;;;;5015146;28;21072;-80
2022/06/08 03:19:00;;;;;;;1.23;1.00;;;19.00;99.90;;;;;;5016000;28;20480;-81
2022/06/08 03:21:28;;;;;;;1.47;1.10;;;18.90;99.90;;;;;;5014610;28;20876;-81
2022/06/08 03:23:57;;;;;;;2.20;1.00;;;19.00;99.90;;;;;;5020943;28;20479;-81
2022/06/08 03:26:27;;;;;;;1.00;1.00;;;19.00;99.90;;;;;;5012123;28;20472;-81
2022/06/08 03:28:56;;;;;;;0.90;0.90;;;19.00;99.90;;;;;;5014165;28;20463;-81
2022/06/08 03:31:25;;;;;;;2.10;1.00;;;19.00;99.90;;;;;;5015476;28;20537;-81
2022/06/08 03:33:53;;;;;;;1.73;0.90;;;18.80;99.90;;;;;;5015930;28;20479;-81
2022/06/08 03:36:21;;;;;;;0.87;0.87;;;18.80;99.90;;;;;;5016851;28;20455;-81
2022/06/08 03:38:49;;;;;;;2.30;1.30;;;18.70;99.90;;;;;;5015580;28;20492;-81
2022/06/08 03:41:18;;;;;;;1.10;0.83;;;18.90;99.90;;;;;;5019573;28;20463;-81
2022/06/08 03:43:46;;;;;;;1.47;0.97;;;18.90;99.90;;;;;;5018247;28;20487;-81
2022/06/08 03:46:17;;;;;;;2.20;0.80;;;18.90;99.90;;;;;;5008897;28;20480;-81
2022/06/08 03:48:46;;;;;;;1.00;0.90;;;18.80;99.90;;;;;;5017824;28;20448;-80
2022/06/08 03:51:17;;;;;;;1.60;0.90;;;18.80;99.90;;;;;;5018350;28;20460;-80
2022/06/08 03:53:48;;;;;;;0.90;0.80;;;19.00;99.90;;;;;;5024323;28;20503;-80
2022/06/08 03:56:19;;;;;;;2.40;1.13;;;18.80;99.90;;;;;;5016946;28;21043;-81
2022/06/08 03:58:47;;;;;;;1.73;1.20;;;18.70;99.90;;;;;;5015721;28;20487;-80
2022/06/08 04:01:17;;;;;;;1.47;1.10;;;18.70;99.90;;;;;;5011153;28;20459;-80
2022/06/08 04:03:47;;;;;;;1.40;1.30;;;18.70;99.90;;;;;;5017581;28;20569;-80
2022/06/08 04:06:16;;;;;;;1.10;0.97;;;18.70;99.90;;;;;;5024138;28;20510;-80
2022/06/08 04:08:44;;;;;;;0.80;0.80;;;18.80;99.90;;;;;;5027230;28;20440;-79
2022/06/08 04:11:12;;;;;;;1.80;0.90;;;18.80;99.90;;;;;;5019477;28;20942;-80
2022/06/08 04:13:41;;;;;;;2.53;0.90;;;18.90;99.90;;;;;;5022170;28;20877;-79
2022/06/08 04:16:09;;;;;;;1.00;1.00;;;18.90;99.90;;;;;;5024544;28;20502;-75
2022/06/08 04:18:39;;;;;;;3.03;1.30;;;19.00;99.90;;;;;;5027668;28;21050;-76
2022/06/08 04:21:10;;;;;;;1.37;0.87;;;19.00;99.90;;;;;;5018739;28;20697;-75
2022/06/08 04:23:40;;;;;;;1.87;1.00;;;19.00;99.90;;;;;;5022593;28;20486;-76
2022/06/08 04:26:09;;;;;;;4.70;1.10;;;18.90;99.90;;;;;;5016650;28;20461;-75
2022/06/08 04:28:37;;;;;;;1.30;1.20;;;18.90;99.90;;;;;;5016242;28;20455;-75
2022/06/08 04:31:06;;;;;;;2.43;1.00;;;18.90;99.90;;;;;;5018282;28;20539;-75
2022/06/08 04:33:35;;;;;;;1.00;0.87;;;18.90;99.90;;;;;;5023244;28;20488;-76
2022/06/08 04:36:10;;;;;;;2.30;1.00;;;18.80;99.90;;;;;;5013347;28;20462;-75
2022/06/08 04:38:39;;;;;;;1.20;1.10;;;18.90;99.90;;;;;;5015358;28;20545;-81
2022/06/08 04:41:08;;;;;;;1.00;0.90;;;18.80;99.90;;;;;;5019192;28;20460;-81
2022/06/08 04:43:37;;;;;;;1.23;1.00;;;18.80;99.90;;;;;;5027413;28;20842;-81
2022/06/08 04:46:06;;;;;;;1.63;1.20;;;18.70;99.90;;;;;;5020421;28;20579;-82
2022/06/08 04:48:34;;;;;;;1.23;0.90;;;18.70;99.90;;;;;;5024306;28;20722;-80
2022/06/08 04:51:03;;;;;;;1.33;0.80;;;18.60;99.90;;;;;;5028250;28;20463;-81
2022/06/08 04:53:33;;;;;;;1.57;1.10;;;18.60;99.90;;;;;;5031079;28;20472;-81
2022/06/08 04:56:01;;;;;;;1.10;1.00;;;18.60;99.90;;;;;;5017116;28;20450;-81
2022/06/08 04:58:29;;;;;;;1.00;0.90;;;18.60;99.90;;;;;;5029438;28;20478;-81
2022/06/08 05:00:57;;;;;;;1.00;0.90;;;18.70;99.90;;;;;;5029169;28;21102;-82
2022/06/08 05:03:26;;;;;;;1.70;0.90;;;18.60;99.90;;;;;;5029467;28;20506;-82
2022/06/08 05:05:55;;;;;;;1.33;1.00;;;18.60;99.90;;;;;;5021919;28;20501;-81
2022/06/08 05:08:23;;;;;;;1.03;0.93;;;18.70;99.90;;;;;;5031365;28;20508;-81
2022/06/08 05:10:54;;;;;;;2.57;1.13;;;18.70;99.90;;;;;;5031621;28;20459;-80
2022/06/08 05:13:23;;;;;;;1.73;0.90;;;18.80;99.90;;;;;;5018955;28;20998;-81
2022/06/08 05:15:51;;;;;;;2.50;0.90;;;18.70;99.90;;;;;;5025901;28;20525;-81
2022/06/08 05:18:21;;;;;;;5.83;1.07;;;18.70;99.90;;;;;;5030599;28;20463;-81
2022/06/08 05:20:49;;;;;;;2.00;0.97;;;18.70;99.90;;;;;;5028789;28;20503;-82
2022/06/08 05:23:20;;;;;;;1.80;0.90;;;18.70;99.90;;;;;;5029627;28;20489;-81
2022/06/08 05:25:49;;;;;;;2.37;1.00;;;18.80;99.90;;;;;;5030299;28;20462;-82
2022/06/08 05:28:18;;;;;;;2.03;0.90;;;18.80;99.90;;;;;;5027259;28;20453;-81
2022/06/08 05:30:49;;;;;;;1.30;1.13;;;18.80;99.90;;;;;;5025771;28;20462;-82
2022/06/08 05:33:18;;;;;;;3.60;0.90;;;18.70;99.90;;;;;;5014535;28;20742;-82
2022/06/08 05:35:46;;;;;;;0.87;0.73;;;18.80;99.90;;;;;;5018359;28;20479;-82
2022/06/08 05:38:14;;;;;;;0.80;0.80;;;18.70;99.90;;;;;;5021034;28;20494;-81
2022/06/08 05:40:42;;;;;;;0.80;0.80;;;18.70;99.90;;;;;;5016674;28;20519;-82
2022/06/08 05:43:14;;;;;;;1.40;1.00;;;18.70;99.90;;;;;;5024963;28;20510;-83
2022/06/08 05:45:45;;;;;;;0.83;0.80;;;18.60;99.90;;;;;;5016317;28;21024;-84
2022/06/08 05:48:14;;;;;;;2.50;0.90;;;18.50;99.90;;;;;;5018581;28;20454;-84
2022/06/08 05:50:43;;;;;;;3.77;0.90;;;18.50;99.90;;;;;;5024843;28;20462;-84
2022/06/08 05:53:13;;;;;;;2.20;0.83;;;18.60;99.90;;;;;;5021526;28;20483;-84
2022/06/08 05:55:42;;;;;;;0.90;0.90;;;18.30;99.90;;;;;;5016580;28;20459;-85
2022/06/08 05:58:10;;;;;;;2.57;0.90;;;18.40;99.90;;;;;;5017691;28;20451;-81
2022/06/08 06:00:40;;;;;;;0.93;0.70;;;18.50;99.90;;;;;;5018343;28;20482;-80
2022/06/08 06:03:10;;;;;;;1.50;1.40;;;18.50;99.90;;;;;;5019633;28;20499;-84
2022/06/08 06:05:40;;;;;;;2.40;1.00;;;18.50;99.90;;;;;;5025336;28;20474;-83
2022/06/08 06:08:10;;;;;;;1.20;1.00;;;18.40;99.90;;;;;;5016506;28;20466;-84
2022/06/08 06:10:40;;;;;;;0.80;0.80;;;18.30;99.90;;;;;;5020199;28;20848;-84
2022/06/08 06:13:08;;;;;;;4.30;1.10;;;18.10;99.90;;;;;;5019971;28;20478;-84
2022/06/08 06:15:37;;;;;;;2.10;1.00;;;17.90;99.90;;;;;;5017818;28;20518;-84
2022/06/08 06:18:06;;;;;;;0.70;0.70;;;18.00;99.90;;;;;;5012671;28;20461;-84
2022/06/08 06:20:36;;;;;;;3.20;1.00;;;18.00;99.90;;;;;;5022392;28;20472;-84
2022/06/08 06:23:04;;;;;;;1.10;1.00;;;18.00;99.90;;;;;;5021629;28;20478;-83
2022/06/08 06:25:33;;;;;;;0.93;0.80;;;17.90;99.90;;;;;;5021372;28;20750;-85
2022/06/08 06:28:01;;;;;;;1.07;0.83;;;17.70;99.90;;;;;;5022613;28;20466;-84
2022/06/08 06:30:30;;;;;;;1.00;1.00;;;17.80;99.90;;;;;;5017318;28;20456;-83
2022/06/08 06:32:59;;;;;;;3.17;1.00;;;17.70;99.90;;;;;;5019596;28;20479;-84
2022/06/08 06:35:29;;;;;;;0.70;0.70;;;17.80;99.90;;;;;;5019296;28;20472;-83
2022/06/08 06:38:06;;;;;;;2.30;1.00;;;17.90;99.90;;;;;;5020909;28;20463;-84
2022/06/08 06:40:34;;;;;;;2.80;1.23;;;18.10;99.90;;;;;;5024528;28;20481;-83
2022/06/08 06:43:03;;;;;;;1.47;1.00;;;18.10;99.90;;;;;;5020281;28;20564;-83
2022/06/08 06:45:31;;;;;;;0.80;0.80;;;18.10;99.90;;;;;;5018337;28;20456;-82
2022/06/08 06:48:00;;;;;;;1.70;1.00;;;18.30;99.90;;;;;;5028100;28;20456;-83
2022/06/08 06:50:28;;;;;;;1.33;0.70;;;18.30;99.90;;;;;;5024987;28;20463;-82
2022/06/08 06:52:59;;;;;;;0.90;0.90;;;18.50;99.90;;;;;;5019287;28;20917;-83
2022/06/08 06:55:36;;;;;;;3.10;0.87;;;18.60;99.90;;;;;;5015916;28;20495;-84
2022/06/08 06:58:05;;;;;;;0.80;0.80;;;18.60;99.90;;;;;;5012470;28;20495;-84
2022/06/08 07:00:34;;;;;;;1.00;0.90;;;18.70;99.90;;;;;;5023996;28;20480;-83
2022/06/08 07:03:04;;;;;;;2.27;0.70;;;18.70;99.90;;;;;;5014680;28;20495;-84
2022/06/08 07:05:35;;;;;;;1.77;1.10;;;18.80;99.90;;;;;;5016528;28;20460;-83
2022/06/08 07:08:03;;;;;;;1.93;0.90;;;18.80;99.90;;;;;;5017370;28;20462;-83
2022/06/08 07:10:32;;;;;;;0.80;0.80;;;18.90;99.90;;;;;;5017860;28;20861;-84
2022/06/08 07:13:02;;;;;;;1.00;0.93;;;19.00;99.90;;;;;;5013743;28;20561;-84
2022/06/08 07:15:33;;;;;;;1.50;0.80;;;18.80;99.90;;;;;;5021472;28;20557;-84
2022/06/08 07:18:01;;;;;;;0.90;0.80;;;18.60;99.90;;;;;;5025827;28;20468;-84
2022/06/08 07:20:29;;;;;;;1.37;0.90;;;18.70;99.90;;;;;;5023620;28;20486;-84
2022/06/08 07:22:58;;;;;;;6.90;1.50;;;18.90;99.90;;;;;;5021016;28;20492;-85
2022/06/08 07:25:27;;;;;;;1.70;0.90;;;18.90;99.90;;;;;;5015650;28;20453;-84
2022/06/08 07:27:55;;;;;;;2.53;1.10;;;18.80;99.90;;;;;;5035127;28;20464;-84
2022/06/08 07:30:25;;;;;;;1.10;0.90;;;18.80;99.90;;;;;;5019193;28;20478;-84
2022/06/08 07:32:53;;;;;;;1.17;1.00;;;18.80;99.90;;;;;;5018907;28;20654;-83
2022/06/08 07:35:22;;;;;;;1.37;0.90;;;19.00;99.90;;;;;;5017726;28;20900;-84
2022/06/08 07:37:50;;;;;;;3.63;1.10;;;19.20;99.90;;;;;;5022495;28;20461;-82
2022/06/08 07:40:19;;;;;;;3.03;1.40;;;19.40;99.90;;;;;;5020610;28;20586;-84
2022/06/08 07:42:47;;;;;;;1.40;0.83;;;19.50;99.90;;;;;;5022198;28;20472;-83
2022/06/08 07:45:15;;;;;;;1.90;0.90;;;19.60;99.90;;;;;;5015619;28;20459;-84
2022/06/08 07:50:31;;;;;;;1.23;0.97;;;19.40;99.90;;;;;;5018849;28;20965;-83
2022/06/08 07:53:00;;;;;;;2.40;1.10;;;19.40;99.90;;;;;;5023534;28;20480;-84
2022/06/08 07:55:28;;;;;;;2.13;1.13;;;19.30;99.90;;;;;;5020929;28;20527;-83
2022/06/08 07:57:57;;;;;;;1.10;1.00;;;19.30;99.90;;;;;;5014478;28;20457;-83
2022/06/08 08:00:26;;;;;;;3.00;1.00;;;19.20;99.90;;;;;;5019907;28;20484;-83
2022/06/08 08:02:56;;;;;;;2.10;1.20;;;19.40;99.90;;;;;;5012156;28;20477;-82
2022/06/08 08:05:25;;;;;;;3.57;1.20;;;19.40;99.90;;;;;;5025894;28;20545;-84
2022/06/08 08:07:53;;;;;;;2.37;1.10;;;19.50;99.90;;;;;;5031059;28;20462;-84
2022/06/08 08:10:23;;;;;;;2.60;0.90;;;19.40;99.90;;;;;;5027486;28;20476;-84
2022/06/08 08:12:55;;;;;;;2.50;0.83;;;19.60;99.90;;;;;;5031252;28;20460;-84
2022/06/08 08:15:26;;;;;;;1.97;1.00;;;19.70;99.90;;;;;;5020002;28;20559;-84
2022/06/08 08:17:56;;;;;;;1.10;0.70;;;19.80;99.90;;;;;;5031306;28;20456;-84
2022/06/08 08:20:26;;;;;;;2.90;0.80;;;19.70;99.90;;;;;;5024763;28;21011;-84
2022/06/08 08:22:55;;;;;;;1.77;0.90;;;19.70;99.90;;;;;;5030878;28;20487;-84
2022/06/08 08:25:24;;;;;;;1.03;0.80;;;19.80;99.90;;;;;;5030083;28;20471;-83
2022/06/08 08:27:53;;;;;;;0.70;0.70;;;20.00;99.90;;;;;;5029902;28;20460;-84
2022/06/08 08:30:24;;;;;;;1.93;0.97;;;19.90;99.90;;;;;;5030808;28;20463;-84
2022/06/08 08:32:52;;;;;;;4.20;0.80;;;19.90;99.90;;;;;;5020733;28;21000;-84
2022/06/08 08:35:24;;;;;;;1.10;0.80;;;20.00;99.90;;;;;;5019514;28;20464;-84
2022/06/08 08:37:53;;;;;;;0.97;0.87;;;20.20;99.90;;;;;;5019725;28;20499;-84
2022/06/08 08:40:47;;;;;;;2.67;0.80;;;20.30;99.90;;;;;;5022517;28;21246;-81
2022/06/08 08:43:18;;;;;;;2.63;0.70;;;20.40;99.90;;;;;;5013871;28;20499;-83
2022/06/08 08:45:59;;;;;;;1.73;0.70;;;20.50;99.90;;;;;;5026069;28;20448;-83
2022/06/08 08:48:30;;;;;;;0.90;0.80;;;20.40;99.90;;;;;;5022057;28;21055;-84
2022/06/08 08:51:07;;;;;;;4.63;1.03;;;20.40;99.90;;;;;;5024157;28;20461;-78
2022/06/08 08:53:47;;;;;;;0.70;0.70;;;20.50;99.90;;;;;;5019563;28;20472;-78
2022/06/08 08:56:21;;;;;;;2.47;0.80;;;20.70;99.90;;;;;;5018445;28;20452;-77
2022/06/08 08:58:51;;;;;;;0.60;0.60;;;20.60;99.90;;;;;;5020342;28;20463;-79
2022/06/08 09:01:22;;;;;;;1.17;0.80;;;20.60;99.90;;;;;;5023653;28;20495;-78
2022/06/08 09:03:57;;;;;;;1.40;1.30;;;20.70;99.90;;;;;;5015383;28;21075;-79
2022/06/08 09:06:30;;;;;;;1.77;0.80;;;20.80;99.90;;;;;;5015752;28;20445;-78
2022/06/08 09:09:03;;;;;;;0.70;0.70;;;20.90;99.90;;;;;;5013429;28;20456;-78
2022/06/08 09:11:35;;;;;;;1.00;0.60;;;20.90;99.90;;;;;;5010974;28;20440;-78
2022/06/08 09:14:08;;;;;;;1.83;0.70;;;21.00;99.90;;;;;;5023395;28;21035;-78
2022/06/08 09:16:39;;;;;;;0.80;0.80;;;21.00;99.90;;;;;;5015602;28;20464;-78
2022/06/08 09:19:28;;;;;;;1.27;0.70;;;21.00;99.90;;;;;;5017715;28;20464;-78
2022/06/08 09:22:16;;;;;;;0.83;0.80;;;21.10;99.90;;;;;;5020460;28;20495;-78
2022/06/08 09:24:48;;;;;;;0.70;0.70;;;21.10;99.90;;;;;;5020243;28;20456;-78
2022/06/08 09:27:22;;;;;;;2.10;0.67;;;21.10;99.90;;;;;;5012201;28;20462;-78
2022/06/08 09:29:55;;;;;;;1.07;0.70;;;21.00;99.90;;;;;;5014839;28;20594;-79
2022/06/08 09:32:28;;;;;;;1.53;0.70;;;20.90;99.90;;;;;;5017942;28;20484;-78
2022/06/08 09:34:59;;;;;;;0.70;0.70;;;21.00;99.90;;;;;;5019361;28;20471;-78
2022/06/08 09:37:30;;;;;;;0.70;0.60;;;21.10;99.90;;;;;;5016271;28;20456;-79
2022/06/08 09:40:01;;;;;;;1.73;0.70;;;21.20;99.90;;;;;;5016123;28;20458;-77
2022/06/08 09:42:52;;;;;;;1.77;0.70;;;21.30;99.90;;;;;;5013142;28;20861;-78
2022/06/08 09:45:47;;;;;;;0.70;0.70;;;21.20;99.90;;;;;;5010156;28;20840;-78
2022/06/08 09:51:31;;;;;;;1.33;0.80;;;21.40;99.90;;;;;;5014979;28;20445;-78
2022/06/08 09:54:12;;;;;;;0.90;0.80;;;21.40;99.90;;;;;;5015685;28;20478;-79
2022/06/08 09:56:56;;;;;;;1.53;1.00;;;21.30;99.90;;;;;;5019521;28;20459;-78
2022/06/08 09:59:40;;;;;;;0.90;0.80;;;21.20;99.90;;;;;;5018905;28;20445;-78
2022/06/08 10:02:19;;;;;;;6.17;2.53;;;21.50;99.90;;;;;;5022902;28;20479;-79
2022/06/08 10:05:01;;;;;;;12.50;5.60;;;21.40;99.90;;;;;;5014240;28;20456;-78
2022/06/08 10:07:39;;;;;;;17.87;8.73;;;21.50;99.90;;;;;;5015280;28;20468;-78
2022/06/08 10:10:23;;;;;;;7.77;3.83;;;21.60;99.90;;;;;;5015383;28;20457;-78
2022/06/08 10:12:57;;;;;;;8.97;3.60;;;21.60;99.90;;;;;;5009782;28;20568;-79
2022/06/08 10:15:34;;;;;;;2.97;1.30;;;21.70;99.90;;;;;;5013821;28;20547;-78
2022/06/08 10:18:15;;;;;;;1.57;1.20;;;21.70;99.90;;;;;;5018614;28;20457;-79
2022/06/08 10:20:51;;;;;;;2.30;1.10;;;21.80;99.90;;;;;;5012512;28;20455;-79
2022/06/08 10:23:27;;;;;;;1.40;0.90;;;21.80;99.90;;;;;;5016344;28;20509;-79
2022/06/08 10:26:01;;;;;;;1.87;1.37;;;21.80;99.90;;;;;;5018650;28;20476;-79
2022/06/08 10:28:36;;;;;;;4.30;2.90;;;21.90;99.90;;;;;;5010106;28;20587;-78
2022/06/08 10:31:13;;;;;;;2.87;2.10;;;22.00;99.90;;;;;;5016452;28;20501;-78
2022/06/08 10:33:49;;;;;;;1.20;1.10;;;22.10;99.90;;;;;;5014961;28;20555;-78
2022/06/08 10:36:18;;;;;;;0.77;0.77;;;21.90;99.90;;;;;;5013460;28;20464;-79
2022/06/08 10:38:46;;;;;;;4.67;2.80;;;22.00;99.90;;;;;;5011485;28;20460;-78
2022/06/08 10:44:35;;;;;;;3.40;2.30;;;22.30;99.90;;;;;;5016047;28;20475;-78
2022/06/08 10:47:21;;;;;;;1.73;1.53;;;22.40;99.90;;;;;;5010958;28;20472;-79
2022/06/08 10:49:55;;;;;;;2.07;1.10;;;22.50;99.90;;;;;;5013615;28;20984;-78
2022/06/08 10:52:30;;;;;;;1.40;0.80;;;22.60;99.90;;;;;;5013992;28;20476;-80
2022/06/08 10:55:33;;;;;;;1.47;0.80;;;22.50;99.90;;;;;;5018034;28;20459;-78
2022/06/08 10:58:18;;;;;;;1.53;0.70;;;22.50;99.90;;;;;;5014472;28;20539;-79
2022/06/08 11:01:19;;;;;;;1.13;0.73;;;22.50;99.90;;;;;;5017570;28;20460;-79
2022/06/08 11:03:59;;;;;;;0.90;0.63;;;22.50;99.90;;;;;;5023525;28;20569;-79
2022/06/08 11:07:01;;;;;;;1.00;0.70;;;22.50;99.90;;;;;;5018243;28;20628;-79
2022/06/08 11:09:53;;;;;;;2.00;0.77;;;22.50;99.90;;;;;;5026037;28;20514;-78
2022/06/08 11:12:55;;;;;;;0.93;0.70;;;22.70;99.90;;;;;;5023641;28;20473;-77
2022/06/08 11:15:44;;;;;;;1.17;0.70;;;22.70;99.90;;;;;;5022712;28;20482;-78
2022/06/08 11:18:24;;;;;;;1.27;0.60;;;22.70;99.90;;;;;;5019197;28;20567;-77
2022/06/08 11:21:06;;;;;;;0.60;0.60;;;22.70;99.90;;;;;;5022449;28;20464;-78
2022/06/08 11:23:40;;;;;;;1.67;0.60;;;22.80;99.90;;;;;;5026679;28;21031;-79
2022/06/08 11:26:29;;;;;;;0.90;0.90;;;22.60;99.90;;;;;;5026022;28;20454;-79
2022/06/08 11:29:00;;;;;;;0.70;0.70;;;22.60;99.90;;;;;;5027519;28;20536;-79
2022/06/08 11:31:52;;;;;;;0.60;0.60;;;22.70;99.90;;;;;;5014357;28;20479;-79
2022/06/08 11:34:50;;;;;;;0.73;0.70;;;22.50;99.90;;;;;;5019767;28;20479;-79
2022/06/08 11:37:40;;;;;;;0.60;0.60;;;22.50;99.90;;;;;;5025526;28;20468;-80
2022/06/08 11:40:15;;;;;;;1.27;0.50;;;22.50;99.90;;;;;;5022013;28;20455;-78
2022/06/08 11:42:50;;;;;;;0.90;0.60;;;22.60;99.90;;;;;;5030494;28;20487;-79
2022/06/08 11:45:21;;;;;;;0.67;0.67;;;22.70;99.90;;;;;;5025280;28;20545;-77
2022/06/08 11:47:57;;;;;;;1.13;0.77;;;22.70;99.90;;;;;;5024944;28;20471;-79
2022/06/08 11:50:29;;;;;;;1.90;0.70;;;22.50;99.90;;;;;;5022422;28;20456;-79
2022/06/08 11:53:00;;;;;;;0.80;0.80;;;22.70;99.90;;;;;;5021395;28;20573;-79
2022/06/08 11:55:32;;;;;;;1.27;0.70;;;22.90;99.90;;;;;;5028694;28;20459;-78
2022/06/08 11:58:09;;;;;;;0.70;0.70;;;23.00;99.90;;;;;;5016553;28;20481;-79
2022/06/08 12:00:52;;;;;;;0.93;0.60;;;23.00;99.90;;;;;;5018248;28;20470;-80
2022/06/08 12:03:28;;;;;;;2.90;0.60;;;23.00;99.90;;;;;;5020496;28;20570;-79
2022/06/08 12:06:04;;;;;;;2.10;0.60;;;23.10;99.90;;;;;;5032102;28;20483;-79
2022/06/08 12:08:36;;;;;;;1.67;0.70;;;23.20;99.90;;;;;;5030380;28;20462;-79
2022/06/08 12:11:23;;;;;;;0.60;0.60;;;23.20;99.90;;;;;;5015959;28;20539;-80
2022/06/08 12:13:55;;;;;;;0.80;0.63;;;23.40;99.90;;;;;;5023027;28;21270;-79
2022/06/08 12:16:27;;;;;;;0.90;0.60;;;23.10;99.90;;;;;;5018913;28;20472;-79
2022/06/08 12:19:02;;;;;;;0.70;0.70;;;23.20;99.90;;;;;;5016285;28;20514;-79
2022/06/08 12:21:34;;;;;;;1.10;0.63;;;23.20;99.90;;;;;;5034589;28;20481;-79
2022/06/08 12:24:21;;;;;;;1.50;0.70;;;23.30;99.90;;;;;;5020957;28;20480;-80
2022/06/08 12:27:01;;;;;;;1.10;0.67;;;23.10;99.90;;;;;;5021842;28;20572;-79
2022/06/08 12:29:38;;;;;;;1.03;0.70;;;23.20;99.90;;;;;;5018560;28;20553;-80
2022/06/08 12:32:26;;;;;;;0.87;0.60;;;23.10;99.90;;;;;;5017739;28;21007;-79
2022/06/08 12:35:17;;;;;;;2.30;0.73;;;23.20;99.90;;;;;;5016738;28;20484;-78
2022/06/08 12:37:46;;;;;;;1.23;0.80;;;23.40;99.90;;;;;;5018317;28;20495;-81
2022/06/08 12:40:33;;;;;;;1.50;0.60;;;23.30;99.90;;;;;;5015501;28;20472;-80
2022/06/08 12:43:16;;;;;;;0.60;0.60;;;23.20;99.90;;;;;;5018533;28;20586;-80
2022/06/08 12:45:47;;;;;;;0.57;0.57;;;23.20;99.90;;;;;;5011309;28;20461;-80
2022/06/08 12:48:23;;;;;;;0.70;0.70;;;23.30;99.90;;;;;;5021623;28;20483;-79
2022/06/08 12:50:54;;;;;;;1.87;0.70;;;23.40;99.90;;;;;;5019224;28;20459;-79
2022/06/08 12:53:23;;;;;;;0.80;0.60;;;23.40;99.90;;;;;;5014167;28;20884;-80
2022/06/08 12:55:52;;;;;;;1.57;0.70;;;23.50;99.90;;;;;;5013884;28;20479;-79
2022/06/08 12:58:23;;;;;;;1.93;0.80;;;23.50;99.90;;;;;;5019880;28;21004;-79
2022/06/08 13:00:54;;;;;;;0.83;0.67;;;23.50;99.90;;;;;;5010847;28;21010;-78
2022/06/08 13:03:25;;;;;;;0.70;0.60;;;23.10;99.90;;;;;;5009341;28;20623;-79
2022/06/08 13:05:56;;;;;;;0.50;0.50;;;23.10;99.90;;;;;;5020090;28;20972;-78
2022/06/08 13:08:27;;;;;;;0.90;0.70;;;23.20;99.90;;;;;;5022003;28;20471;-79
2022/06/08 13:11:00;;;;;;;0.80;0.60;;;23.20;99.90;;;;;;5025186;28;20457;-78
2022/06/08 13:13:32;;;;;;;0.70;0.70;;;23.10;99.90;;;;;;5018179;28;20477;-79
2022/06/08 13:16:04;;;;;;;0.70;0.70;;;23.20;99.90;;;;;;5016320;28;20464;-79
2022/06/08 13:18:33;;;;;;;0.90;0.70;;;23.10;99.90;;;;;;5017719;28;20453;-79
2022/06/08 13:21:06;;;;;;;1.70;0.80;;;23.20;99.90;;;;;;5023745;28;20460;-79
2022/06/08 13:23:34;;;;;;;1.30;0.53;;;23.20;99.90;;;;;;5031945;28;20495;-79
2022/06/08 13:26:03;;;;;;;0.60;0.60;;;23.10;99.90;;;;;;5025793;28;20460;-79
2022/06/08 13:28:33;;;;;;;1.83;0.70;;;23.20;99.90;;;;;;5030302;28;20454;-79
2022/06/08 13:31:04;;;;;;;0.67;0.60;;;23.20;99.90;;;;;;5019404;28;21829;-79